CEB326 RPLL-RPMR
Flight info
| Callsign | CEB326 |
|---|---|
| Flight time | N/A |
| Altitude | 35000 |
| Route | RDVXVERDE/13 VERDE A461 SAJ W3 IOO B472 COT W19 MELBY MELBY3P |
| Aircraft | A320/M-SDE3FGHIRWY/LB1 |
Departure
| Time | N/A |
|---|---|
| Airport | Ninoy Aquino International Airport (RPLL) |
Arrival
| Time | 2026-04-22 17:55 |
|---|---|
| Airport | General Santos International Airport (RPMR) |
| Time | Latitude | Longitude | Altitude | Speed | Heading |
|---|---|---|---|---|---|
| 2026-04-22 17:43 | 6.46556 | 124.76713 | 21072 ft | 368 kts | 141° |
| 2026-04-22 17:43 | 6.44490 | 124.78281 | 20598 ft | 366 kts | 141° |
| 2026-04-22 17:43 | 6.42481 | 124.79803 | 20139 ft | 365 kts | 141° |
| 2026-04-22 17:43 | 6.40452 | 124.81338 | 19675 ft | 364 kts | 141° |
| 2026-04-22 17:44 | 6.38554 | 124.83013 | 19211 ft | 362 kts | 130° |
| 2026-04-22 17:44 | 6.37038 | 124.85018 | 18764 ft | 359 kts | 123° |
| 2026-04-22 17:44 | 6.35611 | 124.87077 | 18306 ft | 359 kts | 123° |
| 2026-04-22 17:44 | 6.34184 | 124.89137 | 17811 ft | 359 kts | 123° |
| 2026-04-22 17:45 | 6.32758 | 124.91194 | 17358 ft | 356 kts | 123° |
| 2026-04-22 17:45 | 6.31343 | 124.93228 | 16918 ft | 354 kts | 123° |
| 2026-04-22 17:45 | 6.29856 | 124.95160 | 16491 ft | 353 kts | 129° |
| 2026-04-22 17:45 | 6.28274 | 124.97037 | 16042 ft | 351 kts | 129° |
| 2026-04-22 17:46 | 6.26700 | 124.98907 | 15615 ft | 350 kts | 129° |
| 2026-04-22 17:46 | 6.25129 | 125.00777 | 15180 ft | 348 kts | 129° |
| 2026-04-22 17:46 | 6.23570 | 125.02634 | 14752 ft | 347 kts | 129° |
| 2026-04-22 17:46 | 6.22017 | 125.04483 | 14318 ft | 346 kts | 129° |
| 2026-04-22 17:47 | 6.20470 | 125.06327 | 13923 ft | 344 kts | 129° |
| 2026-04-22 17:47 | 6.18933 | 125.08159 | 13479 ft | 343 kts | 129° |
| 2026-04-22 17:47 | 6.17407 | 125.09978 | 13079 ft | 339 kts | 129° |
| 2026-04-22 17:47 | 6.15890 | 125.11787 | 12677 ft | 336 kts | 129° |
| 2026-04-22 17:48 | 6.14399 | 125.13563 | 12256 ft | 335 kts | 129° |
| 2026-04-22 17:48 | 6.12893 | 125.15353 | 11815 ft | 333 kts | 129° |
| 2026-04-22 17:48 | 6.11301 | 125.17028 | 11418 ft | 331 kts | 141° |
| 2026-04-22 17:48 | 6.09359 | 125.18177 | 11293 ft | 320 kts | 158° |
| 2026-04-22 17:49 | 6.07250 | 125.18728 | 11038 ft | 308 kts | 171° |
| 2026-04-22 17:49 | 6.05143 | 125.19001 | 10419 ft | 304 kts | 172° |
| 2026-04-22 17:49 | 6.03033 | 125.19257 | 9712 ft | 305 kts | 172° |
| 2026-04-22 17:49 | 6.00950 | 125.19503 | 9187 ft | 296 kts | 172° |
| 2026-04-22 17:50 | 5.98934 | 125.19742 | 8752 ft | 290 kts | 172° |
| 2026-04-22 17:50 | 5.96930 | 125.19983 | 8318 ft | 291 kts | 172° |
| 2026-04-22 17:50 | 5.94918 | 125.20229 | 7870 ft | 292 kts | 172° |
| 2026-04-22 17:50 | 5.92900 | 125.20477 | 7418 ft | 292 kts | 172° |
| 2026-04-22 17:51 | 5.90905 | 125.20705 | 6965 ft | 294 kts | 176° |
| 2026-04-22 17:51 | 5.88914 | 125.20315 | 6496 ft | 296 kts | 207° |
| 2026-04-22 17:51 | 5.87417 | 125.18926 | 6009 ft | 297 kts | 240° |
| 2026-04-22 17:51 | 5.86801 | 125.16970 | 5543 ft | 295 kts | 264° |
| 2026-04-22 17:52 | 5.86713 | 125.14921 | 5033 ft | 290 kts | 272° |
| 2026-04-22 17:52 | 5.87074 | 125.12993 | 4489 ft | 276 kts | 300° |
| 2026-04-22 17:52 | 5.88335 | 125.11677 | 4113 ft | 256 kts | 334° |
| 2026-04-22 17:52 | 5.89970 | 125.11145 | 3744 ft | 241 kts | 352° |
| 2026-04-22 17:53 | 5.91606 | 125.10959 | 3355 ft | 233 kts | 357° |
| 2026-04-22 17:53 | 5.93206 | 125.10864 | 2954 ft | 228 kts | 358° |
| 2026-04-22 17:53 | 5.94779 | 125.10770 | 2538 ft | 224 kts | 357° |
| 2026-04-22 17:53 | 5.96299 | 125.10656 | 2184 ft | 219 kts | 356° |
| 2026-04-22 17:54 | 5.97794 | 125.10521 | 1878 ft | 212 kts | 355° |
| 2026-04-22 17:54 | 5.99245 | 125.10373 | 1582 ft | 207 kts | 354° |
| 2026-04-22 17:54 | 6.00614 | 125.10222 | 1309 ft | 188 kts | 354° |
| 2026-04-22 17:54 | 6.01841 | 125.10079 | 1040 ft | 169 kts | 353° |
| 2026-04-22 17:55 | 6.02950 | 125.09949 | 811 ft | 152 kts | 353° |
| 2026-04-22 17:55 | 6.03957 | 125.09848 | 643 ft | 142 kts | 352° |
| 2026-04-22 17:55 | 6.04902 | 125.09728 | 517 ft | 127 kts | 352° |
| 2026-04-22 17:55 | 6.05503 | 125.09654 | 513 ft | 44 kts | 354° |
| 2026-04-22 17:56 | 6.05738 | 125.09627 | 514 ft | 19 kts | 352° |
| 2026-04-22 17:56 | 6.05817 | 125.09653 | 514 ft | 13 kts | 71° |
| 2026-04-22 17:56 | 6.05826 | 125.09733 | 514 ft | 11 kts | 84° |
| 2026-04-22 17:56 | 6.05834 | 125.09805 | 514 ft | 10 kts | 84° |
| 2026-04-22 17:57 | 6.05826 | 125.09865 | 514 ft | 8 kts | 132° |
| 2026-04-22 17:57 | 6.05776 | 125.09874 | 514 ft | 7 kts | 178° |
| 2026-04-22 17:57 | 6.05732 | 125.09878 | 514 ft | 6 kts | 173° |
| 2026-04-22 17:57 | 6.05710 | 125.09905 | 515 ft | 7 kts | 95° |
| 2026-04-22 17:58 | 6.05715 | 125.09955 | 514 ft | 5 kts | 83° |
| 2026-04-22 17:58 | 6.05715 | 125.09958 | 514 ft | 0 kts | 83° |